createdAt,value
2023-04-09T00:01:29.924Z,59.92
2023-04-09T00:03:56.449Z,59.83
2023-04-09T00:06:22.995Z,59.99
2023-04-09T00:08:49.531Z,60.10
2023-04-09T00:11:16.103Z,60.21
2023-04-09T00:13:42.560Z,60.41
2023-04-09T00:16:09.214Z,60.32
2023-04-09T00:18:36.160Z,60.31
2023-04-09T00:21:02.588Z,60.65
2023-04-09T00:23:29.228Z,60.67
2023-04-09T00:25:55.823Z,60.54
2023-04-09T00:28:22.363Z,60.56
2023-04-09T00:30:48.955Z,60.90
2023-04-09T00:33:15.597Z,61.29
2023-04-09T00:35:42.243Z,61.80
2023-04-09T00:38:08.869Z,61.04
2023-04-09T00:40:35.509Z,61.18
2023-04-09T00:43:02.550Z,60.80
2023-04-09T00:45:29.277Z,61.02
2023-04-09T00:47:56.210Z,61.11
2023-04-09T00:50:22.982Z,61.22
2023-04-09T00:52:49.671Z,61.33
2023-04-09T00:55:18.315Z,60.59
2023-04-09T00:57:45.016Z,60.85
2023-04-09T01:00:13.135Z,60.79
2023-04-09T01:02:41.024Z,60.58
2023-04-09T01:05:08.329Z,60.59
2023-04-09T01:08:02.046Z,60.63
2023-04-09T01:10:35.963Z,60.86
2023-04-09T01:13:02.506Z,60.68
2023-04-09T01:15:33.936Z,60.16
2023-04-09T01:18:07.474Z,60.56
2023-04-09T01:20:43.591Z,60.94
2023-04-09T01:23:10.124Z,60.58
2023-04-09T01:26:04.303Z,60.74
2023-04-09T01:28:39.412Z,60.53
2023-04-09T01:31:13.757Z,59.63
2023-04-09T01:33:42.196Z,60.77
2023-04-09T01:36:09.925Z,60.79
2023-04-09T01:38:39.845Z,61.00
2023-04-09T01:41:07.815Z,60.62
2023-04-09T01:43:35.092Z,60.81
2023-04-09T01:46:03.741Z,60.54
2023-04-09T01:48:31.600Z,60.98
2023-04-09T01:50:59.060Z,61.20
2023-04-09T01:53:28.460Z,60.78
2023-04-09T01:55:58.328Z,60.48
2023-04-09T01:58:26.327Z,60.08
2023-04-09T02:00:59.013Z,60.15
2023-04-09T02:03:31.465Z,60.73
2023-04-09T02:06:12.068Z,60.59
2023-04-09T02:08:39.428Z,60.38
2023-04-09T02:11:10.787Z,60.71
2023-04-09T02:13:40.393Z,61.11
2023-04-09T02:16:08.051Z,60.95
2023-04-09T02:18:34.663Z,61.98
2023-04-09T02:21:01.345Z,62.21
2023-04-09T02:23:28.076Z,61.48
2023-04-09T02:25:54.804Z,61.85
2023-04-09T02:28:21.505Z,62.13
2023-04-09T02:30:48.111Z,62.54
2023-04-09T02:33:14.698Z,62.40
2023-04-09T02:35:42.413Z,62.47
2023-04-09T02:38:13.998Z,63.24
2023-04-09T02:40:41.410Z,62.74
2023-04-09T02:43:08.974Z,62.63
2023-04-09T02:45:36.094Z,62.97
2023-04-09T02:48:02.708Z,62.95
2023-04-09T02:50:29.529Z,63.73
2023-04-09T02:52:56.188Z,63.89
2023-04-09T02:55:22.859Z,63.99
2023-04-09T02:57:49.432Z,64.10
2023-04-09T03:00:16.288Z,63.99
2023-04-09T03:02:43.281Z,64.57
2023-04-09T03:05:10.382Z,63.98
2023-04-09T03:07:36.927Z,64.04
2023-04-09T03:10:03.594Z,63.94
2023-04-09T03:12:30.155Z,64.90
2023-04-09T03:14:56.680Z,65.30
2023-04-09T03:17:25.830Z,64.93
2023-04-09T03:19:52.599Z,65.12
2023-04-09T03:22:19.181Z,65.42
2023-04-09T03:24:45.812Z,65.21
2023-04-09T03:27:12.463Z,65.48
2023-04-09T03:29:39.044Z,65.39
2023-04-09T03:32:05.865Z,65.55
2023-04-09T03:34:32.429Z,65.42
2023-04-09T03:36:59.124Z,65.20
2023-04-09T03:39:26.105Z,65.31
2023-04-09T03:41:53.226Z,65.63
2023-04-09T03:44:19.775Z,66.34
2023-04-09T03:46:46.385Z,66.02
2023-04-09T03:49:12.915Z,65.30
2023-04-09T03:51:39.498Z,65.99
2023-04-09T03:54:06.102Z,66.05
2023-04-09T03:56:32.705Z,66.71
2023-04-09T03:58:59.328Z,66.80
2023-04-09T04:01:26.007Z,66.67
2023-04-09T04:03:52.632Z,65.74
2023-04-09T04:06:19.400Z,65.26
2023-04-09T04:08:45.967Z,66.12
2023-04-09T04:11:12.622Z,66.08
2023-04-09T04:13:39.387Z,65.67
2023-04-09T04:16:10.226Z,65.23
2023-04-09T04:18:37.336Z,65.35
2023-04-09T04:21:04.147Z,66.02
2023-04-09T04:23:30.802Z,66.13
2023-04-09T04:25:58.172Z,65.97
2023-04-09T04:28:24.813Z,66.01
2023-04-09T04:30:51.380Z,66.39
2023-04-09T04:33:18.542Z,66.81
2023-04-09T04:35:45.397Z,65.17
2023-04-09T04:38:12.050Z,65.23
2023-04-09T04:40:38.625Z,66.42
2023-04-09T04:43:05.390Z,65.79
2023-04-09T04:45:31.966Z,65.57
2023-04-09T04:47:58.484Z,65.36
2023-04-09T04:50:25.134Z,65.53
2023-04-09T04:52:51.742Z,65.59
2023-04-09T04:55:18.328Z,66.26
2023-04-09T04:57:44.885Z,65.94
2023-04-09T05:00:12.413Z,66.09
2023-04-09T05:02:39.166Z,66.48
2023-04-09T05:05:06.687Z,66.88
2023-04-09T05:07:33.924Z,66.05
2023-04-09T05:10:00.571Z,66.21
2023-04-09T05:12:27.176Z,66.39
2023-04-09T05:14:53.711Z,67.61
2023-04-09T05:17:20.355Z,67.34
2023-04-09T05:19:52.496Z,67.48
2023-04-09T05:22:19.386Z,67.11
2023-04-09T05:24:46.147Z,67.99
2023-04-09T05:27:12.708Z,67.95
2023-04-09T05:29:39.258Z,67.91
2023-04-09T05:32:06.974Z,67.72
2023-04-09T05:34:33.509Z,68.23
2023-04-09T05:37:00.036Z,68.17
2023-04-09T05:39:26.626Z,67.74
2023-04-09T05:41:53.218Z,67.90
2023-04-09T05:44:19.785Z,67.93
2023-04-09T05:46:46.325Z,67.63
2023-04-09T05:49:12.865Z,67.61
2023-04-09T05:51:39.420Z,68.52
2023-04-09T05:54:06.039Z,68.51
2023-04-09T05:56:32.604Z,68.50
2023-04-09T05:58:59.098Z,68.12
2023-04-09T06:01:25.653Z,68.15
2023-04-09T06:03:53.910Z,68.39
2023-04-09T06:06:21.870Z,67.60
2023-04-09T06:08:48.280Z,67.44
2023-04-09T06:11:14.740Z,68.59
2023-04-09T06:13:41.544Z,68.57
2023-04-09T06:16:09.009Z,69.12
2023-04-09T06:18:36.840Z,68.18
2023-04-09T06:21:03.960Z,65.50
2023-04-09T06:23:31.083Z,62.88
2023-04-09T06:25:57.794Z,62.23
2023-04-09T06:28:24.501Z,62.20
2023-04-09T06:30:51.238Z,60.40
2023-04-09T06:33:17.904Z,58.48
2023-04-09T06:35:44.608Z,56.74
2023-04-09T06:38:11.349Z,56.51
2023-04-09T06:40:39.141Z,54.99
2023-04-09T06:43:06.193Z,54.46
2023-04-09T06:45:33.813Z,54.39
2023-04-09T06:48:01.044Z,54.55
2023-04-09T06:50:27.817Z,54.36
2023-04-09T06:52:55.344Z,54.56
2023-04-09T06:55:21.989Z,54.32
2023-04-09T06:57:48.632Z,54.41
2023-04-09T07:00:15.511Z,54.20
2023-04-09T07:02:42.230Z,53.61
2023-04-09T07:05:09.302Z,53.44
2023-04-09T07:07:35.836Z,53.11
2023-04-09T07:10:02.398Z,54.03
2023-04-09T07:12:32.740Z,53.03
2023-04-09T07:15:03.730Z,53.33
2023-04-09T07:17:31.242Z,52.07
2023-04-09T07:19:57.842Z,52.36
2023-04-09T07:22:26.780Z,51.36
2023-04-09T07:24:56.526Z,52.34
2023-04-09T07:27:24.809Z,51.67
2023-04-09T07:29:51.264Z,51.44
2023-04-09T07:32:17.771Z,50.22
2023-04-09T07:34:44.492Z,50.31
2023-04-09T07:37:11.806Z,49.67
2023-04-09T07:39:38.509Z,49.32
2023-04-09T07:42:05.825Z,50.45
2023-04-09T07:44:36.515Z,50.21
2023-04-09T07:47:04.660Z,50.66
2023-04-09T07:49:31.348Z,51.14
2023-04-09T07:51:59.741Z,51.19
2023-04-09T07:54:26.389Z,51.66
2023-04-09T07:56:52.801Z,51.78
2023-04-09T07:59:19.276Z,53.03
2023-04-09T08:01:45.981Z,52.42
2023-04-09T08:04:13.723Z,53.54
2023-04-09T08:06:40.829Z,54.23
2023-04-09T08:09:07.793Z,53.74
2023-04-09T08:11:34.245Z,54.50
2023-04-09T08:14:03.593Z,54.01
2023-04-09T08:16:30.484Z,54.69
2023-04-09T08:18:57.444Z,55.20
2023-04-09T08:21:23.977Z,54.34
2023-04-09T08:23:51.099Z,55.09
2023-04-09T08:26:17.835Z,55.65
2023-04-09T08:28:44.784Z,55.47
2023-04-09T08:31:11.264Z,55.83
2023-04-09T08:33:37.714Z,56.75
2023-04-09T08:36:08.586Z,55.60
2023-04-09T08:38:35.073Z,54.27
2023-04-09T08:41:01.506Z,54.64
2023-04-09T08:43:42.001Z,54.50
2023-04-09T08:46:18.662Z,52.93
2023-04-09T08:48:46.775Z,51.34
2023-04-09T08:51:17.461Z,52.81
2023-04-09T08:53:47.537Z,54.04
2023-04-09T08:56:16.996Z,53.57
2023-04-09T08:58:44.786Z,54.48
2023-04-09T09:01:25.478Z,54.47
2023-04-09T09:03:59.455Z,54.64
2023-04-09T09:06:32.725Z,55.74
2023-04-09T09:09:09.561Z,53.47
2023-04-09T09:11:43.690Z,53.59
2023-04-09T09:14:15.971Z,54.91
2023-04-09T09:16:44.930Z,54.28
2023-04-09T09:19:26.648Z,53.08
2023-04-09T09:22:01.986Z,53.49
2023-04-09T09:24:28.908Z,53.19
2023-04-09T09:26:55.741Z,52.72
2023-04-09T09:29:22.235Z,52.11
2023-04-09T09:31:52.998Z,51.51
2023-04-09T09:34:20.945Z,52.62
2023-04-09T09:36:47.988Z,52.39
2023-04-09T09:39:17.317Z,52.19
2023-04-09T09:41:45.781Z,52.32
2023-04-09T09:44:29.990Z,52.62
2023-04-09T09:46:57.566Z,51.91
2023-04-09T09:49:23.978Z,51.94
2023-04-09T09:51:53.115Z,51.57
2023-04-09T09:54:23.781Z,50.34
2023-04-09T09:56:52.689Z,49.70
2023-04-09T09:59:27.053Z,49.38
2023-04-09T10:02:00.239Z,49.01
2023-04-09T10:04:29.773Z,48.33
2023-04-09T10:06:56.965Z,49.20
2023-04-09T10:09:23.897Z,49.63
2023-04-09T10:11:50.429Z,49.91
2023-04-09T10:14:18.692Z,48.65
2023-04-09T10:16:46.400Z,47.82
2023-04-09T10:19:14.988Z,47.82
2023-04-09T10:21:47.558Z,49.62
2023-04-09T10:24:15.986Z,50.23
2023-04-09T10:26:45.028Z,49.94
2023-04-09T10:29:15.946Z,49.06
2023-04-09T10:31:54.169Z,50.42
2023-04-09T10:34:27.195Z,51.01
2023-04-09T10:36:58.367Z,48.72
2023-04-09T10:39:29.894Z,49.18
2023-04-09T10:41:57.277Z,48.30
2023-04-09T10:44:28.248Z,48.19
2023-04-09T10:46:55.482Z,49.45
2023-04-09T10:49:26.957Z,49.44
2023-04-09T10:52:13.744Z,48.38
2023-04-09T10:54:43.843Z,47.43
2023-04-09T10:57:13.548Z,47.32
2023-04-09T10:59:45.384Z,48.99
2023-04-09T11:02:45.121Z,47.35
2023-04-09T11:05:17.489Z,47.99
2023-04-09T11:08:09.640Z,47.75
2023-04-09T11:10:37.630Z,48.62
2023-04-09T11:13:04.819Z,48.91
2023-04-09T11:15:34.364Z,49.54
2023-04-09T11:18:01.792Z,46.91
2023-04-09T11:20:28.584Z,48.01
2023-04-09T11:22:56.077Z,48.71
2023-04-09T11:25:24.825Z,48.41
2023-04-09T11:27:51.275Z,47.44
2023-04-09T11:30:17.803Z,45.34
2023-04-09T11:32:44.740Z,47.10
2023-04-09T11:35:22.083Z,47.42
2023-04-09T11:37:50.117Z,47.49
2023-04-09T11:40:25.584Z,47.79
2023-04-09T11:42:54.034Z,47.11
2023-04-09T11:45:23.357Z,47.87
2023-04-09T11:47:50.387Z,46.96
2023-04-09T11:50:17.771Z,46.11
2023-04-09T11:52:46.034Z,46.33
2023-04-09T11:55:22.175Z,45.01
2023-04-09T11:57:51.102Z,45.03
2023-04-09T12:00:18.076Z,44.33
2023-04-09T12:02:46.799Z,45.13
2023-04-09T12:05:22.395Z,45.39
2023-04-09T12:07:56.294Z,44.32
2023-04-09T12:10:27.975Z,43.12
2023-04-09T12:12:54.636Z,45.49
2023-04-09T12:15:25.369Z,42.97
2023-04-09T12:17:54.433Z,43.17
2023-04-09T12:20:36.599Z,43.30
2023-04-09T12:23:04.759Z,44.25
2023-04-09T12:25:36.526Z,45.40
2023-04-09T12:28:04.478Z,45.96
2023-04-09T12:30:31.464Z,44.76
2023-04-09T12:32:59.106Z,45.74
2023-04-09T12:35:25.843Z,43.93
2023-04-09T12:37:53.194Z,44.55
2023-04-09T12:40:20.363Z,44.45
2023-04-09T12:42:47.034Z,42.73
2023-04-09T12:45:15.554Z,43.76
2023-04-09T12:47:42.491Z,43.04
2023-04-09T12:50:10.252Z,42.67
2023-04-09T12:52:36.987Z,42.81
2023-04-09T12:55:04.315Z,43.20
2023-04-09T12:57:30.859Z,43.92
2023-04-09T12:59:57.425Z,44.15
2023-04-09T13:02:24.436Z,44.48
2023-04-09T13:04:52.732Z,44.74
2023-04-09T13:07:20.300Z,44.15
2023-04-09T13:09:48.560Z,43.53
2023-04-09T13:12:16.220Z,44.37
2023-04-09T13:14:46.585Z,43.81
2023-04-09T13:17:13.432Z,42.97
2023-04-09T13:19:42.080Z,42.53
2023-04-09T13:22:09.404Z,43.14
2023-04-09T13:24:36.552Z,42.26
2023-04-09T13:27:04.736Z,43.17
2023-04-09T13:29:31.887Z,42.61
2023-04-09T13:31:58.702Z,41.22
2023-04-09T13:34:25.288Z,42.46
2023-04-09T13:36:51.810Z,42.86
2023-04-09T13:39:18.235Z,42.75
2023-04-09T13:41:44.787Z,42.84
2023-04-09T13:44:11.424Z,43.04
2023-04-09T13:46:37.894Z,43.70
2023-04-09T13:49:04.382Z,43.40
2023-04-09T13:51:31.572Z,42.09
2023-04-09T13:53:58.012Z,41.98
2023-04-09T13:56:25.200Z,40.43
2023-04-09T13:58:51.894Z,41.13
2023-04-09T14:01:18.716Z,42.13
2023-04-09T14:03:45.489Z,42.42
2023-04-09T14:06:13.420Z,42.93
2023-04-09T14:08:39.859Z,42.42
2023-04-09T14:11:06.523Z,43.02
2023-04-09T14:13:32.920Z,41.98
2023-04-09T14:16:00.519Z,42.07
2023-04-09T14:18:27.236Z,41.36
2023-04-09T14:20:53.661Z,42.85
2023-04-09T14:23:20.182Z,41.72
2023-04-09T14:25:46.524Z,42.93
2023-04-09T14:28:12.914Z,42.42
2023-04-09T14:30:39.338Z,41.50
2023-04-09T14:33:05.793Z,40.81
2023-04-09T14:35:32.308Z,42.28
2023-04-09T14:37:58.872Z,42.06
2023-04-09T14:40:25.368Z,41.68
2023-04-09T14:42:51.849Z,41.99
2023-04-09T14:45:18.294Z,42.02
2023-04-09T14:47:44.803Z,42.29
2023-04-09T14:50:12.848Z,42.40
2023-04-09T14:52:39.409Z,42.26
2023-04-09T14:55:11.958Z,41.93
2023-04-09T14:57:39.695Z,41.41
2023-04-09T15:00:08.828Z,40.71
2023-04-09T15:02:35.607Z,41.20
2023-04-09T15:05:03.409Z,40.62
2023-04-09T15:07:30.035Z,41.02
2023-04-09T15:09:59.421Z,41.39
2023-04-09T15:12:30.546Z,41.75
2023-04-09T15:15:07.091Z,41.33
2023-04-09T15:17:33.914Z,42.07
2023-04-09T15:20:00.499Z,42.89
2023-04-09T15:22:26.968Z,42.38
2023-04-09T15:24:53.655Z,42.04
2023-04-09T15:27:20.426Z,41.79
2023-04-09T15:29:47.312Z,41.02
2023-04-09T15:32:13.782Z,41.65
2023-04-09T15:34:40.278Z,43.39
2023-04-09T15:37:06.763Z,43.26
2023-04-09T15:39:33.257Z,42.92
2023-04-09T15:41:59.805Z,42.29
2023-04-09T15:44:26.224Z,42.02
2023-04-09T15:46:52.803Z,42.94
2023-04-09T15:49:19.838Z,43.13
2023-04-09T15:51:46.409Z,42.62
2023-04-09T15:54:12.906Z,42.77
2023-04-09T15:56:40.202Z,43.49
2023-04-09T15:59:08.319Z,44.38
2023-04-09T16:01:36.451Z,43.75
2023-04-09T16:04:04.907Z,44.52
2023-04-09T16:06:31.619Z,44.10
2023-04-09T16:08:58.052Z,44.25
2023-04-09T16:11:24.527Z,44.25
2023-04-09T16:13:51.049Z,44.83
2023-04-09T16:16:17.588Z,45.04
2023-04-09T16:18:44.076Z,44.98
2023-04-09T16:21:10.568Z,44.97
2023-04-09T16:23:37.153Z,45.55
2023-04-09T16:26:03.866Z,44.64
2023-04-09T16:28:30.350Z,45.58
2023-04-09T16:30:56.962Z,45.28
2023-04-09T16:33:23.372Z,45.73
2023-04-09T16:35:49.874Z,45.89
2023-04-09T16:38:16.287Z,46.54
2023-04-09T16:40:43.693Z,47.04
2023-04-09T16:43:10.297Z,46.63
2023-04-09T16:45:36.772Z,47.38
2023-04-09T16:48:03.574Z,46.63
2023-04-09T16:50:30.006Z,47.25
2023-04-09T16:52:56.590Z,47.67
2023-04-09T16:55:23.070Z,47.57
2023-04-09T16:57:49.478Z,47.52
2023-04-09T17:00:17.713Z,48.16
2023-04-09T17:02:45.911Z,48.35
2023-04-09T17:05:12.556Z,49.20
2023-04-09T17:07:39.079Z,49.35
2023-04-09T17:10:06.618Z,48.78
2023-04-09T17:12:33.338Z,49.78
2023-04-09T17:15:00.795Z,49.34
2023-04-09T17:17:27.461Z,49.79
2023-04-09T17:19:54.035Z,49.90
2023-04-09T17:22:20.576Z,49.60
2023-04-09T17:24:47.223Z,50.33
2023-04-09T17:27:13.722Z,51.29
2023-04-09T17:29:40.961Z,50.88
2023-04-09T17:32:07.479Z,50.46
2023-04-09T17:34:33.879Z,51.48
2023-04-09T17:37:00.371Z,51.15
2023-04-09T17:39:29.277Z,51.02
2023-04-09T17:41:58.058Z,50.95
2023-04-09T17:44:28.024Z,51.68
2023-04-09T17:46:54.554Z,51.21
2023-04-09T17:49:22.383Z,51.83
2023-04-09T17:51:48.940Z,52.15
2023-04-09T17:54:15.373Z,53.97
2023-04-09T17:56:41.891Z,54.38
2023-04-09T17:59:08.300Z,53.92
2023-04-09T18:01:34.783Z,55.04
2023-04-09T18:04:01.847Z,53.71
2023-04-09T18:06:28.968Z,52.20
2023-04-09T18:08:55.410Z,53.15
2023-04-09T18:11:23.560Z,52.22
2023-04-09T18:13:51.555Z,52.45
2023-04-09T18:16:20.775Z,52.49
2023-04-09T18:18:47.488Z,52.69
2023-04-09T18:21:15.182Z,52.83
2023-04-09T18:23:41.656Z,52.92
2023-04-09T18:26:08.252Z,53.37
2023-04-09T18:28:35.379Z,52.61
2023-04-09T18:31:02.014Z,52.63
2023-04-09T18:33:28.463Z,52.87
2023-04-09T18:35:54.938Z,52.08
2023-04-09T18:38:21.580Z,52.95
2023-04-09T18:40:48.042Z,52.30
2023-04-09T18:43:14.466Z,52.88
2023-04-09T18:45:40.915Z,53.44
2023-04-09T18:48:08.691Z,53.82
2023-04-09T18:50:35.428Z,51.44
2023-04-09T18:53:03.527Z,51.13
2023-04-09T18:55:30.418Z,51.98
2023-04-09T18:57:57.385Z,50.67
2023-04-09T19:00:27.425Z,50.55
2023-04-09T19:02:54.023Z,51.68
2023-04-09T19:05:20.747Z,51.90
2023-04-09T19:07:47.118Z,52.53
2023-04-09T19:10:13.579Z,53.40
2023-04-09T19:12:47.284Z,53.73
2023-04-09T19:15:13.871Z,53.60
2023-04-09T19:17:40.576Z,54.74
2023-04-09T19:20:07.659Z,51.73
2023-04-09T19:22:34.144Z,53.37
2023-04-09T19:25:00.605Z,54.87
2023-04-09T19:27:27.041Z,54.01
2023-04-09T19:29:53.516Z,54.21
2023-04-09T19:32:19.943Z,53.97
2023-04-09T19:34:46.357Z,53.76
2023-04-09T19:37:15.028Z,53.19
2023-04-09T19:39:41.538Z,52.81
2023-04-09T19:42:08.296Z,52.26
2023-04-09T19:44:34.831Z,53.89
2023-04-09T19:47:01.309Z,52.90
2023-04-09T19:49:28.607Z,52.70
2023-04-09T19:51:55.107Z,53.52
2023-04-09T19:54:21.820Z,52.57
2023-04-09T19:56:48.264Z,53.27
2023-04-09T19:59:14.901Z,53.40
2023-04-09T20:01:41.342Z,52.79
2023-04-09T20:04:09.233Z,53.46
2023-04-09T20:06:35.766Z,53.63
2023-04-09T20:09:02.220Z,53.21
2023-04-09T20:11:28.630Z,52.30
2023-04-09T20:13:56.715Z,52.93
2023-04-09T20:16:23.179Z,53.03
2023-04-09T20:18:49.601Z,52.95
2023-04-09T20:21:16.089Z,53.38
2023-04-09T20:23:45.044Z,53.57
2023-04-09T20:26:13.316Z,54.24
2023-04-09T20:28:40.765Z,54.43
2023-04-09T20:31:07.829Z,54.06
2023-04-09T20:33:34.476Z,53.05
2023-04-09T20:36:01.249Z,52.97
2023-04-09T20:38:27.791Z,54.65
2023-04-09T20:40:54.269Z,54.35
2023-04-09T20:43:21.219Z,53.98
2023-04-09T20:45:47.740Z,53.07
2023-04-09T20:48:14.845Z,53.62
2023-04-09T20:50:41.307Z,54.71
2023-04-09T20:53:07.982Z,55.07
2023-04-09T20:55:35.589Z,54.15
2023-04-09T20:58:02.863Z,53.17
2023-04-09T21:00:29.757Z,53.89
2023-04-09T21:02:56.516Z,54.40
2023-04-09T21:05:24.230Z,54.01
2023-04-09T21:07:52.176Z,55.35
2023-04-09T21:10:18.601Z,54.31
2023-04-09T21:12:45.197Z,54.67
2023-04-09T21:15:11.974Z,55.38
2023-04-09T21:17:38.522Z,55.86
2023-04-09T21:20:05.576Z,56.40
2023-04-09T21:22:32.071Z,55.47
2023-04-09T21:24:58.495Z,56.56
2023-04-09T21:27:24.980Z,56.93
2023-04-09T21:29:51.373Z,57.13
2023-04-09T21:32:17.890Z,57.42
2023-04-09T21:34:44.444Z,57.69
2023-04-09T21:37:11.073Z,57.98
2023-04-09T21:39:38.369Z,57.69
2023-04-09T21:42:05.840Z,57.90
2023-04-09T21:44:32.328Z,57.23
2023-04-09T21:46:58.753Z,57.94
2023-04-09T21:49:25.328Z,58.46
2023-04-09T21:51:52.746Z,58.98
2023-04-09T21:54:19.364Z,58.71
2023-04-09T21:56:46.295Z,58.95
2023-04-09T21:59:12.666Z,58.17
2023-04-09T22:01:39.271Z,57.73
2023-04-09T22:04:05.818Z,57.64
2023-04-09T22:06:32.438Z,57.51
2023-04-09T22:08:58.950Z,57.48
2023-04-09T22:11:29.358Z,57.45
2023-04-09T22:13:57.039Z,58.21
2023-04-09T22:16:24.374Z,57.76
2023-04-09T22:18:51.636Z,58.32
2023-04-09T22:21:18.260Z,58.11
2023-04-09T22:23:44.970Z,57.60
2023-04-09T22:26:11.499Z,57.40
2023-04-09T22:28:38.390Z,57.64
2023-04-09T22:31:05.777Z,57.96
2023-04-09T22:33:32.332Z,58.07
2023-04-09T22:35:59.362Z,58.34
2023-04-09T22:38:26.156Z,58.21
2023-04-09T22:40:52.710Z,58.03
2023-04-09T22:43:19.669Z,58.17
2023-04-09T22:45:55.878Z,56.99
2023-04-09T22:48:22.981Z,56.63
2023-04-09T22:50:50.338Z,57.54
2023-04-09T22:53:20.714Z,57.91
2023-04-09T22:55:51.223Z,57.76
2023-04-09T22:58:18.433Z,57.01
2023-04-09T23:00:45.370Z,57.80
2023-04-09T23:03:11.923Z,57.51
2023-04-09T23:05:38.979Z,58.03
2023-04-09T23:08:06.353Z,58.67
2023-04-09T23:10:34.144Z,59.05
2023-04-09T23:13:00.831Z,58.79
2023-04-09T23:15:28.044Z,58.52
2023-04-09T23:17:54.687Z,58.44
2023-04-09T23:20:21.169Z,58.38
2023-04-09T23:22:48.265Z,56.73
2023-04-09T23:25:18.217Z,58.09
2023-04-09T23:27:44.877Z,58.68
2023-04-09T23:30:16.435Z,58.92
2023-04-09T23:32:44.490Z,57.61
2023-04-09T23:35:11.495Z,58.35
2023-04-09T23:37:42.410Z,58.32
2023-04-09T23:40:10.519Z,58.25
2023-04-09T23:42:36.960Z,58.80
2023-04-09T23:45:05.382Z,58.54
2023-04-09T23:47:33.537Z,58.90
2023-04-09T23:50:09.648Z,58.51
2023-04-09T23:52:37.912Z,58.38
2023-04-09T23:55:05.735Z,58.04
2023-04-09T23:57:32.236Z,58.02
2023-04-09T23:59:58.779Z,57.68
